New Almaden, California
Current Conditions -  °F | °C
As of 9:47 PM on Wednesday 26 Nov 2014 (Local Time) from KRHV Reporting Station
Clear Clear  
Wind Chill: 12°   Ceiling: Unl
Heat Index: 12°   Visibility: 8mi
Dew Point:   Wind: 0mph
Humidity: 77%   Direction: NA
Pressure: 30.23"   Gusts: NA
Location:  37.18°N, 121.82°W
Report Text: KRHV 270547Z 00000KT 8SM SKC 12/08 A3023 RMK LAST
Loading
Personal Weather Stations






























Interactive Weather Map New forecast layout! Learn more

10-Day Weather Forecast

Advertisements
Track Severe Weather on mobile